Time;durP1;ratioP1;P1;durP2;ratioP2;P2;SDS_P1;SDS_P2;PMS_P1;PMS_P2;Temp;Humidity;BMP_temperature;BMP_pressure;BME280_temperature;BME280_humidity;BME280_pressure;Samples;Min_cycle;Max_cycle;Signal;HPM_P1;HPM_P2
2022/07/15 00:00:36;;;;;;;;;;;;;;;;;;5034627;28;7148;-50
2022/07/15 00:03:02;;;;;;;;;;;;;;;;;;5034331;28;7388;-53
2022/07/15 00:05:27;;;;;;;;;;;;;;;;;;5034833;28;7212;-50
2022/07/15 00:10:56;;;;;;;;;;;;;;;;;;5036701;28;6906;-53
2022/07/15 00:16:24;;;;;;;;;;;;;;;;;;5038382;28;6690;-48
2022/07/15 00:28:00;;;;;;;;;;;;;;;;;;5038298;28;7055;-49
2022/07/15 00:33:36;;;;;;;;;;;;;;;;;;5038093;28;6782;-52
2022/07/15 00:36:02;;;;;;;;;;;;;;;;;;5038138;28;7411;-52
2022/07/15 00:38:40;;;;;;;;;;;;;;;;;;5037748;28;7277;-51
2022/07/15 00:41:09;;;;;;;;;;;;;;;;;;5038117;28;7063;-52
2022/07/15 00:43:35;;;;;;;;;;;;;;;;;;5038253;28;7048;-50
2022/07/15 00:46:00;;;;;;;;;;;;;;;;;;5038066;28;7318;-51
2022/07/15 00:51:38;;;;;;;;;;;;;;;;;;5055493;28;6935;-50
2022/07/15 01:00:11;;;;;;;;;;;;;;;;;;5057444;28;6726;-51
2022/07/15 01:02:54;;;;;;;;;;;;;;;;;;5057507;28;7200;-48
2022/07/15 01:05:21;;;;;;;;;;;;;;;;;;5057551;28;7189;-47
2022/07/15 01:08:10;;;;;;;;;;;;;;;;;;5057163;28;7187;-49
2022/07/15 01:10:36;;;;;;;;;;;;;;;;;;5058230;28;7168;-50
2022/07/15 01:16:05;;;;;;;;;;;;;;;;;;5057027;28;6710;-49
2022/07/15 01:18:30;;;;;;;;;;;;;;;;;;5057326;28;7155;-48
2022/07/15 01:20:56;;;;;;;;;;;;;;;;;;5056833;28;6990;-51
2022/07/15 01:23:21;;;;;;;;;;;;;;;;;;5057045;28;7075;-49
2022/07/15 01:29:13;;;;;;;;;;;;;;;;;;5056980;28;6916;-51
2022/07/15 01:31:39;;;;;;;;;;;;;;;;;;5057094;28;7747;-46
2022/07/15 01:34:16;;;;;;;;;;;;;;;;;;5056959;28;7199;-52
2022/07/15 01:36:41;;;;;;;;;;;;;;;;;;5057054;28;6963;-51
2022/07/15 01:39:07;;;;;;;;;;;;;;;;;;5056508;28;6958;-47
2022/07/15 01:41:50;;;;;;;;;;;;;;;;;;5056923;28;6958;-52
2022/07/15 01:44:16;;;;;;;;;;;;;;;;;;5056849;28;7047;-50
2022/07/15 01:50:17;;;;;;;;;;;;;;;;;;5056212;28;6902;-53
2022/07/15 01:52:43;;;;;;;;;;;;;;;;;;5056647;28;7150;-51
2022/07/15 01:55:09;;;;;;;;;;;;;;;;;;5056729;28;7317;-51
2022/07/15 01:57:34;;;;;;;;;;;;;;;;;;5056517;28;7137;-52
2022/07/15 02:00:00;;;;;;;;;;;;;;;;;;5056386;28;7340;-51
2022/07/15 02:02:56;;;;;;;;;;;;;;;;;;5057128;28;7039;-46
2022/07/15 02:05:22;;;;;;;;;;;;;;;;;;5056050;28;7206;-49
2022/07/15 02:08:15;;;;;;;;;;;;;;;;;;5056398;28;7509;-50
2022/07/15 02:10:41;;;;;;;;;;;;;;;;;;5056300;28;6853;-52
2022/07/15 02:13:11;;;;;;;;;;;;;;;;;;5056195;28;7064;-52
2022/07/15 02:15:38;;;;;;;;;;;;;;;;;;5056500;28;6976;-53
2022/07/15 02:18:13;;;;;;;;;;;;;;;;;;5056606;28;7135;-52
2022/07/15 02:20:38;;;;;;;;;;;;;;;;;;5055957;28;7161;-52
2022/07/15 02:23:04;;;;;;;;;;;;;;;;;;5056048;28;7228;-50
2022/07/15 02:25:31;;;;;;;;;;;;;;;;;;5071851;28;8707;-51
2022/07/15 02:27:59;;;;;;;;;;;;;;;;;;5056061;28;7196;-49
2022/07/15 02:30:49;;;;;;;;;;;;;;;;;;5055764;28;6990;-52
2022/07/15 02:33:14;;;;;;;;;;;;;;;;;;5053992;28;8425;-52
2022/07/15 02:35:42;;;;;;;;;;;;;;;;;;5056069;28;7205;-51
2022/07/15 02:38:08;;;;;;;;;;;;;;;;;;5055289;28;7044;-48
2022/07/15 02:40:34;;;;;;;;;;;;;;;;;;5048492;23;7100;-88
2022/07/15 02:43:00;;;;;;;;;;;;;;;;;;4995528;28;8269;-88
2022/07/15 02:45:28;;;;;;;;;;;;;;;;;;4995401;28;8949;-88
2022/07/15 02:47:54;;;;;;;;;;;;;;;;;;4996120;28;7026;-89
2022/07/15 02:50:21;;;;;;;;;;;;;;;;;;4995085;28;7009;-89
2022/07/15 02:52:47;;;;;;;;;;;;;;;;;;4995187;28;8711;-88
2022/07/15 02:55:14;;;;;;;;;;;;;;;;;;4995425;28;7251;-88
2022/07/15 02:57:40;;;;;;;;;;;;;;;;;;4995337;28;8444;-88
2022/07/15 03:00:08;;;;;;;;;;;;;;;;;;4995318;28;7399;-88
2022/07/15 03:02:34;;;;;;;;;;;;;;;;;;4995507;28;7409;-89
2022/07/15 03:05:00;;;;;;;;;;;;;;;;;;4995227;28;8388;-87
2022/07/15 03:07:28;;;;;;;;;;;;;;;;;;4995402;28;7250;-88
2022/07/15 03:09:54;;;;;;;;;;;;;;;;;;4994876;28;7073;-88
2022/07/15 03:12:19;;;;;;;;;;;;;;;;;;4995004;28;8445;-87
2022/07/15 03:14:45;;;;;;;;;;;;;;;;;;4995164;28;7145;-88
2022/07/15 03:17:10;;;;;;;;;;;;;;;;;;4994872;28;8317;-88
2022/07/15 03:19:36;;;;;;;;;;;;;;;;;;4995355;28;7081;-87
2022/07/15 03:22:01;;;;;;;;;;;;;;;;;;4994901;28;8632;-88
2022/07/15 03:24:27;;;;;;;;;;;;;;;;;;4994949;28;8694;-87
2022/07/15 03:26:53;;;;;;;;;;;;;;;;;;4995178;28;7137;-89
2022/07/15 03:29:18;;;;;;;;;;;;;;;;;;4994799;28;7010;-89
2022/07/15 03:31:44;;;;;;;;;;;;;;;;;;4994681;28;8445;-89
2022/07/15 03:34:10;;;;;;;;;;;;;;;;;;4995201;28;8540;-88
2022/07/15 03:36:39;;;;;;;;;;;;;;;;;;4994285;28;7163;-89
2022/07/15 03:39:05;;;;;;;;;;;;;;;;;;4994194;28;7088;-89
2022/07/15 03:41:30;;;;;;;;;;;;;;;;;;4994573;28;7013;-89
2022/07/15 03:43:56;;;;;;;;;;;;;;;;;;4994347;28;7400;-88
2022/07/15 03:46:21;;;;;;;;;;;;;;;;;;4994062;28;7015;-89
2022/07/15 03:48:47;;;;;;;;;;;;;;;;;;4994078;28;7422;-89
2022/07/15 03:51:12;;;;;;;;;;;;;;;;;;4994276;28;7300;-89
2022/07/15 03:53:38;;;;;;;;;;;;;;;;;;4994287;28;8431;-89
2022/07/15 03:56:04;;;;;;;;;;;;;;;;;;4994361;28;6999;-88
2022/07/15 03:58:29;;;;;;;;;;;;;;;;;;4994156;28;7017;-88
2022/07/15 04:00:55;;;;;;;;;;;;;;;;;;4994139;28;6998;-88
2022/07/15 04:03:20;;;;;;;;;;;;;;;;;;4994835;28;7031;-88
2022/07/15 04:05:46;;;;;;;;;;;;;;;;;;4994576;28;8829;-88
2022/07/15 04:08:12;;;;;;;;;;;;;;;;;;4994591;28;8433;-89
2022/07/15 04:10:37;;;;;;;;;;;;;;;;;;4994246;28;7030;-89
2022/07/15 04:13:03;;;;;;;;;;;;;;;;;;4994309;28;8411;-88
2022/07/15 04:15:28;;;;;;;;;;;;;;;;;;4994076;28;7297;-87
2022/07/15 04:17:54;;;;;;;;;;;;;;;;;;4994409;28;8587;-88
2022/07/15 04:20:20;;;;;;;;;;;;;;;;;;4994248;28;7019;-87
2022/07/15 04:22:49;;;;;;;;;;;;;;;;;;4994422;28;6965;-88
2022/07/15 04:25:17;;;;;;;;;;;;;;;;;;4993906;28;7108;-88
2022/07/15 04:27:43;;;;;;;;;;;;;;;;;;4994328;28;7562;-88
2022/07/15 04:30:09;;;;;;;;;;;;;;;;;;4993979;28;7137;-88
2022/07/15 04:32:35;;;;;;;;;;;;;;;;;;4993858;28;8399;-87
2022/07/15 04:35:01;;;;;;;;;;;;;;;;;;4993825;28;7183;-89
2022/07/15 04:37:28;;;;;;;;;;;;;;;;;;4994029;28;8819;-88
2022/07/15 04:39:54;;;;;;;;;;;;;;;;;;4993457;28;7199;-88
2022/07/15 04:42:21;;;;;;;;;;;;;;;;;;4995471;28;7179;-89
2022/07/15 04:44:47;;;;;;;;;;;;;;;;;;4994186;28;7071;-89
2022/07/15 04:47:13;;;;;;;;;;;;;;;;;;4994285;28;7086;-88
2022/07/15 04:52:24;;;;;;;;;;;;;;;;;;4990999;28;6810;-84
2022/07/15 04:54:50;;;;;;;;;;;;;;;;;;5008698;28;7291;-83
2022/07/15 04:57:15;;;;;;;;;;;;;;;;;;5011494;28;8722;-84
2022/07/15 04:59:40;;;;;;;;;;;;;;;;;;5013035;28;7230;-85
2022/07/15 05:02:06;;;;;;;;;;;;;;;;;;5012758;28;7042;-88
2022/07/15 05:04:31;;;;;;;;;;;;;;;;;;5012403;28;7021;-88
2022/07/15 05:06:57;;;;;;;;;;;;;;;;;;5012051;28;7052;-84
2022/07/15 05:09:22;;;;;;;;;;;;;;;;;;5012801;28;7025;-84
2022/07/15 05:11:48;;;;;;;;;;;;;;;;;;5012195;28;7027;-84
2022/07/15 05:14:13;;;;;;;;;;;;;;;;;;5013071;28;8360;-85
2022/07/15 05:16:39;;;;;;;;;;;;;;;;;;5012663;28;7292;-85
2022/07/15 05:19:05;;;;;;;;;;;;;;;;;;5012487;28;7154;-85
2022/07/15 05:21:30;;;;;;;;;;;;;;;;;;5012021;28;7206;-84
2022/07/15 05:23:56;;;;;;;;;;;;;;;;;;5012663;28;8311;-83
2022/07/15 05:26:21;;;;;;;;;;;;;;;;;;5012674;28;8378;-83
2022/07/15 05:28:47;;;;;;;;;;;;;;;;;;5012451;28;7055;-83
2022/07/15 05:31:12;;;;;;;;;;;;;;;;;;5012092;28;7096;-83
2022/07/15 05:33:38;;;;;;;;;;;;;;;;;;4996092;28;7148;-83
2022/07/15 05:36:04;;;;;;;;;;;;;;;;;;5012632;28;8760;-83
2022/07/15 05:38:30;;;;;;;;;;;;;;;;;;5012316;28;7023;-83
2022/07/15 05:40:55;;;;;;;;;;;;;;;;;;5011716;28;8457;-83
2022/07/15 05:43:21;;;;;;;;;;;;;;;;;;5011874;28;8444;-83
2022/07/15 05:45:46;;;;;;;;;;;;;;;;;;5012022;28;7247;-84
2022/07/15 05:48:11;;;;;;;;;;;;;;;;;;5011911;28;8362;-84
2022/07/15 05:50:37;;;;;;;;;;;;;;;;;;4934601;28;11897;-85
2022/07/15 05:53:03;;;;;;;;;;;;;;;;;;4944748;28;8390;-84
2022/07/15 05:55:28;;;;;;;;;;;;;;;;;;4956160;28;7383;-83
2022/07/15 05:57:54;;;;;;;;;;;;;;;;;;4956647;28;8422;-82
2022/07/15 06:00:22;;;;;;;;;;;;;;;;;;4952049;28;7277;-88
2022/07/15 06:02:48;;;;;;;;;;;;;;;;;;4956055;28;8549;-85
2022/07/15 06:05:13;;;;;;;;;;;;;;;;;;4956620;28;7152;-85
2022/07/15 06:07:39;;;;;;;;;;;;;;;;;;4956289;28;8745;-85
2022/07/15 06:10:06;;;;;;;;;;;;;;;;;;4955984;28;6995;-84
2022/07/15 06:12:32;;;;;;;;;;;;;;;;;;4955095;28;8304;-86
2022/07/15 06:14:57;;;;;;;;;;;;;;;;;;4956097;28;8380;-86
2022/07/15 06:17:23;;;;;;;;;;;;;;;;;;4908939;28;8685;-86
2022/07/15 06:19:48;;;;;;;;;;;;;;;;;;4954604;28;8701;-84
2022/07/15 06:22:14;;;;;;;;;;;;;;;;;;4955863;28;7174;-85
2022/07/15 06:24:39;;;;;;;;;;;;;;;;;;4956022;28;7500;-84
2022/07/15 06:27:05;;;;;;;;;;;;;;;;;;4956427;28;7002;-83
2022/07/15 06:29:32;;;;;;;;;;;;;;;;;;4955809;28;7383;-84
2022/07/15 06:31:58;;;;;;;;;;;;;;;;;;4955195;28;7397;-83
2022/07/15 06:34:23;;;;;;;;;;;;;;;;;;4955942;28;8376;-84
2022/07/15 06:36:50;;;;;;;;;;;;;;;;;;4955660;28;7408;-84
2022/07/15 06:39:16;;;;;;;;;;;;;;;;;;4954906;28;8787;-84
2022/07/15 06:41:42;;;;;;;;;;;;;;;;;;4954910;28;7044;-83
2022/07/15 06:44:08;;;;;;;;;;;;;;;;;;4955283;28;8731;-83
2022/07/15 06:46:33;;;;;;;;;;;;;;;;;;4955564;28;8409;-84
2022/07/15 06:48:59;;;;;;;;;;;;;;;;;;4956337;28;7137;-82
2022/07/15 06:51:25;;;;;;;;;;;;;;;;;;4954749;28;7225;-83
2022/07/15 06:53:50;;;;;;;;;;;;;;;;;;4955922;28;8432;-88
2022/07/15 06:56:16;;;;;;;;;;;;;;;;;;4956126;28;8429;-88
2022/07/15 06:58:41;;;;;;;;;;;;;;;;;;4955929;28;8765;-88
2022/07/15 07:01:07;;;;;;;;;;;;;;;;;;4955865;28;8712;-86
2022/07/15 07:03:32;;;;;;;;;;;;;;;;;;4955355;28;7387;-87
2022/07/15 07:05:58;;;;;;;;;;;;;;;;;;4955812;28;7420;-89
2022/07/15 07:08:24;;;;;;;;;;;;;;;;;;4955707;28;6988;-87
2022/07/15 07:10:49;;;;;;;;;;;;;;;;;;4954436;28;8310;-90
2022/07/15 07:13:15;;;;;;;;;;;;;;;;;;4954663;28;7358;-86
2022/07/15 07:15:40;;;;;;;;;;;;;;;;;;4955045;28;8693;-87
2022/07/15 07:18:06;;;;;;;;;;;;;;;;;;4955022;28;8468;-87
2022/07/15 07:20:31;;;;;;;;;;;;;;;;;;4954254;28;7127;-85
2022/07/15 07:22:57;;;;;;;;;;;;;;;;;;4953778;28;8474;-83
2022/07/15 07:25:23;;;;;;;;;;;;;;;;;;4953953;28;7433;-83
2022/07/15 07:27:49;;;;;;;;;;;;;;;;;;4952249;28;7037;-89
2022/07/15 07:30:15;;;;;;;;;;;;;;;;;;4954562;28;8787;-87
2022/07/15 07:32:40;;;;;;;;;;;;;;;;;;4954700;28;7014;-84
2022/07/15 07:35:07;;;;;;;;;;;;;;;;;;4955371;28;7432;-87
2022/07/15 07:37:37;;;;;;;;;;;;;;;;;;4954042;28;8479;-84
2022/07/15 07:40:05;;;;;;;;;;;;;;;;;;4954601;28;8395;-84
2022/07/15 07:42:30;;;;;;;;;;;;;;;;;;4954322;28;7149;-84
2022/07/15 07:44:56;;;;;;;;;;;;;;;;;;4954179;28;9028;-86
2022/07/15 07:47:21;;;;;;;;;;;;;;;;;;4954914;28;7084;-89
2022/07/15 07:49:47;;;;;;;;;;;;;;;;;;4954794;28;7010;-87
2022/07/15 07:52:14;;;;;;;;;;;;;;;;;;4954555;28;7116;-88
2022/07/15 07:54:41;;;;;;;;;;;;;;;;;;4955015;28;7102;-88
2022/07/15 07:57:06;;;;;;;;;;;;;;;;;;4954682;28;7047;-87
2022/07/15 07:59:32;;;;;;;;;;;;;;;;;;4954214;28;8700;-87
2022/07/15 08:01:57;;;;;;;;;;;;;;;;;;4954191;28;7088;-88
2022/07/15 08:04:23;;;;;;;;;;;;;;;;;;4954508;28;7051;-89
2022/07/15 08:06:49;;;;;;;;;;;;;;;;;;4952989;28;7290;-88
2022/07/15 08:09:16;;;;;;;;;;;;;;;;;;4952958;28;8325;-87
2022/07/15 08:11:41;;;;;;;;;;;;;;;;;;4953044;28;7272;-79
2022/07/15 08:14:07;;;;;;;;;;;;;;;;;;4953342;28;7036;-76
2022/07/15 08:16:33;;;;;;;;;;;;;;;;;;4953332;28;8717;-76
2022/07/15 08:18:59;;;;;;;;;;;;;;;;;;4953443;28;8677;-87
2022/07/15 08:21:24;;;;;;;;;;;;;;;;;;4953730;28;7060;-87
2022/07/15 08:23:50;;;;;;;;;;;;;;;;;;4954166;28;8513;-88
2022/07/15 08:26:22;;;;;;;;;;;;;;;;;;4954047;28;7017;-88
2022/07/15 08:28:49;;;;;;;;;;;;;;;;;;4954324;28;7269;-88
2022/07/15 08:31:14;;;;;;;;;;;;;;;;;;4954881;28;7615;-84
2022/07/15 08:33:40;;;;;;;;;;;;;;;;;;4958216;28;7267;-85
2022/07/15 08:36:05;;;;;;;;;;;;;;;;;;4958255;28;8501;-82
2022/07/15 08:38:31;;;;;;;;;;;;;;;;;;4957771;28;8387;-84
2022/07/15 08:40:57;;;;;;;;;;;;;;;;;;4957976;28;8464;-83
2022/07/15 08:43:23;;;;;;;;;;;;;;;;;;4957666;28;7203;-84
2022/07/15 08:45:48;;;;;;;;;;;;;;;;;;4957729;28;8485;-83
2022/07/15 08:48:14;;;;;;;;;;;;;;;;;;4957658;28;8411;-83
2022/07/15 08:50:41;;;;;;;;;;;;;;;;;;4958168;28;8423;-84
2022/07/15 08:53:06;;;;;;;;;;;;;;;;;;4958112;28;8452;-84
2022/07/15 08:55:32;;;;;;;;;;;;;;;;;;4958021;28;8434;-83
2022/07/15 08:57:58;;;;;;;;;;;;;;;;;;4958121;28;8784;-73
2022/07/15 09:00:28;;;;;;;;;;;;;;;;;;4957637;28;8715;-73
2022/07/15 09:02:58;;;;;;;;;;;;;;;;;;4958466;28;8864;-83
2022/07/15 09:05:29;;;;;;;;;;;;;;;;;;4958270;28;8520;-85
2022/07/15 09:07:58;;;;;;;;;;;;;;;;;;4958404;28;7053;-85
2022/07/15 09:10:25;;;;;;;;;;;;;;;;;;4958308;28;6935;-85
2022/07/15 09:12:52;;;;;;;;;;;;;;;;;;4957756;28;7747;-85
2022/07/15 09:15:32;;;;;;;;;;;;;;;;;;4956080;28;7088;-83
2022/07/15 09:18:10;;;;;;;;;;;;;;;;;;4954662;28;7488;-87
2022/07/15 09:20:37;;;;;;;;;;;;;;;;;;4954372;28;7349;-89
2022/07/15 09:23:03;;;;;;;;;;;;;;;;;;4956198;28;7057;-92
2022/07/15 09:25:33;;;;;;;;;;;;;;;;;;4955682;28;7303;-86
2022/07/15 09:28:01;;;;;;;;;;;;;;;;;;4954251;28;8531;-88
2022/07/15 09:36:02;;;;;;;;;;;;;;;;;;4955821;28;7007;-90
2022/07/15 09:38:40;;;;;;;;;;;;;;;;;;4955094;28;7049;-85
2022/07/15 09:41:11;;;;;;;;;;;;;;;;;;4954653;28;7252;-89
2022/07/15 09:43:45;;;;;;;;;;;;;;;;;;4955019;28;8505;-90
2022/07/15 09:46:11;;;;;;;;;;;;;;;;;;4952204;28;7176;-90
2022/07/15 09:48:41;;;;;;;;;;;;;;;;;;4951548;28;8338;-91
2022/07/15 09:51:06;;;;;;;;;;;;;;;;;;4936986;29;8588;-89
2022/07/15 09:53:33;;;;;;;;;;;;;;;;;;4937799;29;8538;-90
2022/07/15 09:55:58;;;;;;;;;;;;;;;;;;4939979;28;8734;-89
2022/07/15 09:58:25;;;;;;;;;;;;;;;;;;4962893;28;8451;-89
2022/07/15 10:00:52;;;;;;;;;;;;;;;;;;4956925;28;7744;-89
2022/07/15 10:03:21;;;;;;;;;;;;;;;;;;4937080;29;8964;-88
2022/07/15 10:05:50;;;;;;;;;;;;;;;;;;4953395;28;7174;-88
2022/07/15 10:08:17;;;;;;;;;;;;;;;;;;4955692;28;6899;-90
2022/07/15 10:10:43;;;;;;;;;;;;;;;;;;4955426;28;8324;-88
2022/07/15 10:13:24;;;;;;;;;;;;;;;;;;4954273;28;7087;-91
2022/07/15 10:16:08;;;;;;;;;;;;;;;;;;4952291;28;6919;-91
2022/07/15 10:18:46;;;;;;;;;;;;;;;;;;4971727;28;7173;-90
2022/07/15 10:21:21;;;;;;;;;;;;;;;;;;4970868;28;8441;-90
2022/07/15 10:23:49;;;;;;;;;;;;;;;;;;4973440;28;8670;-92
2022/07/15 10:26:30;;;;;;;;;;;;;;;;;;4954191;28;9067;-91
2022/07/15 10:28:58;;;;;;;;;;;;;;;;;;4955882;28;8431;-91
2022/07/15 10:31:26;;;;;;;;;;;;;;;;;;4957576;28;7076;-89
2022/07/15 10:34:06;;;;;;;;;;;;;;;;;;4974409;28;8672;-87
2022/07/15 10:36:47;;;;;;;;;;;;;;;;;;4956239;28;8946;-89
2022/07/15 10:39:14;;;;;;;;;;;;;;;;;;4961590;28;8679;-90
2022/07/15 10:41:58;;;;;;;;;;;;;;;;;;4972911;28;8780;-90
2022/07/15 10:44:25;;;;;;;;;;;;;;;;;;4956573;28;8749;-91
2022/07/15 10:47:29;;;;;;;;;;;;;;;;;;4955132;28;7183;-90
2022/07/15 10:49:55;;;;;;;;;;;;;;;;;;4900650;29;7964;-91
2022/07/15 10:52:21;;;;;;;;;;;;;;;;;;4899165;29;7186;-89
2022/07/15 10:54:59;;;;;;;;;;;;;;;;;;4899477;29;7453;-90
2022/07/15 10:57:40;;;;;;;;;;;;;;;;;;4900002;29;8732;-89
2022/07/15 11:00:05;;;;;;;;;;;;;;;;;;4900353;29;8435;-91
2022/07/15 11:02:31;;;;;;;;;;;;;;;;;;4900144;29;8320;-89
2022/07/15 11:05:16;;;;;;;;;;;;;;;;;;4900986;29;8481;-90
2022/07/15 11:07:42;;;;;;;;;;;;;;;;;;4899633;29;8424;-88
2022/07/15 11:10:07;;;;;;;;;;;;;;;;;;4899918;29;7048;-92
2022/07/15 11:12:34;;;;;;;;;;;;;;;;;;4901175;29;7019;-91
2022/07/15 11:15:01;;;;;;;;;;;;;;;;;;4907837;29;6853;-95
2022/07/15 11:17:29;;;;;;;;;;;;;;;;;;4911705;29;8727;-92
2022/07/15 11:19:56;;;;;;;;;;;;;;;;;;4913067;28;8798;-90
2022/07/15 11:22:25;;;;;;;;;;;;;;;;;;4956298;28;7237;-90
2022/07/15 11:24:52;;;;;;;;;;;;;;;;;;4954891;28;7086;-91
2022/07/15 11:27:20;;;;;;;;;;;;;;;;;;4954763;28;7455;-91
2022/07/15 11:29:47;;;;;;;;;;;;;;;;;;4954736;28;8615;-91
2022/07/15 11:32:15;;;;;;;;;;;;;;;;;;4954698;28;7056;-90
2022/07/15 11:34:42;;;;;;;;;;;;;;;;;;4954870;28;8767;-90
2022/07/15 11:37:10;;;;;;;;;;;;;;;;;;4954543;28;7141;-92
2022/07/15 11:39:37;;;;;;;;;;;;;;;;;;4954481;28;8340;-91
2022/07/15 11:44:48;;;;;;;;;;;;;;;;;;4955690;28;6821;-91
2022/07/15 11:47:13;;;;;;;;;;;;;;;;;;4954110;28;7284;-91
2022/07/15 11:49:39;;;;;;;;;;;;;;;;;;4953706;28;8349;-90
2022/07/15 11:52:06;;;;;;;;;;;;;;;;;;4970569;28;7107;-92
2022/07/15 11:54:35;;;;;;;;;;;;;;;;;;4970438;28;7282;-93
2022/07/15 11:57:06;;;;;;;;;;;;;;;;;;4970105;28;8463;-91
2022/07/15 11:59:32;;;;;;;;;;;;;;;;;;4970853;28;8469;-91
2022/07/15 12:02:01;;;;;;;;;;;;;;;;;;4970453;28;7079;-91
2022/07/15 12:04:27;;;;;;;;;;;;;;;;;;4970565;28;7671;-90
2022/07/15 12:06:53;;;;;;;;;;;;;;;;;;4974162;28;8424;-90
2022/07/15 12:09:18;;;;;;;;;;;;;;;;;;4974433;28;8713;-90
2022/07/15 12:11:44;;;;;;;;;;;;;;;;;;4974367;28;7505;-88
2022/07/15 12:14:11;;;;;;;;;;;;;;;;;;4978591;28;8318;-92
2022/07/15 12:16:42;;;;;;;;;;;;;;;;;;4980102;28;7085;-92
2022/07/15 12:19:17;;;;;;;;;;;;;;;;;;4973861;28;8859;-91
2022/07/15 12:21:44;;;;;;;;;;;;;;;;;;4974544;28;8390;-92
2022/07/15 12:24:15;;;;;;;;;;;;;;;;;;4974788;28;7053;-92
2022/07/15 12:26:50;;;;;;;;;;;;;;;;;;4973892;28;7134;-94
2022/07/15 12:29:17;;;;;;;;;;;;;;;;;;4975317;28;8603;-93
2022/07/15 12:31:51;;;;;;;;;;;;;;;;;;4979476;28;6913;-90
2022/07/15 12:34:16;;;;;;;;;;;;;;;;;;4975181;28;7080;-92
2022/07/15 12:36:42;;;;;;;;;;;;;;;;;;4973469;28;7194;-93
2022/07/15 12:39:13;;;;;;;;;;;;;;;;;;4976553;28;8360;-92
2022/07/15 12:41:41;;;;;;;;;;;;;;;;;;4974128;28;7313;-92
2022/07/15 12:44:11;;;;;;;;;;;;;;;;;;4978970;28;8401;-91
2022/07/15 12:46:51;;;;;;;;;;;;;;;;;;4968232;28;7301;-92
2022/07/15 12:49:35;;;;;;;;;;;;;;;;;;4958963;28;7113;-92
2022/07/15 12:52:20;;;;;;;;;;;;;;;;;;4974116;28;7061;-91
2022/07/15 12:55:10;;;;;;;;;;;;;;;;;;4986165;28;7112;-89
2022/07/15 12:58:20;;;;;;;;;;;;;;;;;;4969527;28;6924;-90
2022/07/15 13:00:52;;;;;;;;;;;;;;;;;;4982376;28;7035;-91
2022/07/15 13:03:43;;;;;;;;;;;;;;;;;;4969396;28;6990;-93
2022/07/15 13:06:11;;;;;;;;;;;;;;;;;;4963806;28;7059;-90
2022/07/15 13:08:43;;;;;;;;;;;;;;;;;;4981253;28;7195;-91
2022/07/15 13:11:09;;;;;;;;;;;;;;;;;;4985537;28;6941;-89
2022/07/15 13:13:43;;;;;;;;;;;;;;;;;;4964375;28;7135;-91
2022/07/15 13:16:33;;;;;;;;;;;;;;;;;;4952135;28;7469;-90
2022/07/15 13:19:08;;;;;;;;;;;;;;;;;;4931085;29;7312;-92
2022/07/15 13:21:34;;;;;;;;;;;;;;;;;;4949065;28;7910;-93
2022/07/15 13:24:00;;;;;;;;;;;;;;;;;;4949315;28;8184;-91
2022/07/15 13:26:26;;;;;;;;;;;;;;;;;;4950116;28;9086;-90
2022/07/15 13:29:03;;;;;;;;;;;;;;;;;;4934616;28;6952;-90
2022/07/15 13:31:33;;;;;;;;;;;;;;;;;;4951797;28;6945;-90
2022/07/15 13:33:59;;;;;;;;;;;;;;;;;;4950766;28;7031;-90
2022/07/15 13:36:26;;;;;;;;;;;;;;;;;;4951064;28;7049;-90
2022/07/15 13:38:52;;;;;;;;;;;;;;;;;;4935293;28;7345;-90
2022/07/15 13:41:17;;;;;;;;;;;;;;;;;;4948222;28;7035;-92
2022/07/15 13:43:43;;;;;;;;;;;;;;;;;;4945147;28;8708;-90
2022/07/15 13:46:12;;;;;;;;;;;;;;;;;;4949115;28;6947;-90
2022/07/15 13:48:38;;;;;;;;;;;;;;;;;;4940823;28;6946;-94
2022/07/15 13:53:48;;;;;;;;;;;;;;;;;;4959816;28;6826;-92
2022/07/15 13:56:17;;;;;;;;;;;;;;;;;;4945481;28;8414;-94
2022/07/15 13:58:46;;;;;;;;;;;;;;;;;;4947223;28;7064;-93
2022/07/15 14:01:15;;;;;;;;;;;;;;;;;;4976313;28;7119;-93
2022/07/15 14:03:44;;;;;;;;;;;;;;;;;;4959215;28;6931;-92
2022/07/15 14:06:10;;;;;;;;;;;;;;;;;;4963844;28;8470;-90
2022/07/15 14:08:35;;;;;;;;;;;;;;;;;;4974116;28;7021;-91
2022/07/15 14:11:01;;;;;;;;;;;;;;;;;;4971974;28;8333;-91
2022/07/15 14:13:27;;;;;;;;;;;;;;;;;;4972372;28;8418;-90
2022/07/15 14:15:52;;;;;;;;;;;;;;;;;;4970988;28;8751;-90
2022/07/15 14:18:18;;;;;;;;;;;;;;;;;;4971429;28;7417;-89
2022/07/15 14:20:45;;;;;;;;;;;;;;;;;;4971683;28;7244;-87
2022/07/15 14:23:12;;;;;;;;;;;;;;;;;;4972537;28;8469;-89
2022/07/15 14:25:38;;;;;;;;;;;;;;;;;;4972225;28;7120;-88
2022/07/15 14:28:04;;;;;;;;;;;;;;;;;;4971124;28;8443;-88
2022/07/15 14:30:29;;;;;;;;;;;;;;;;;;4971334;28;8995;-87
2022/07/15 14:32:55;;;;;;;;;;;;;;;;;;4972198;28;8674;-90
2022/07/15 14:35:21;;;;;;;;;;;;;;;;;;4972034;28;7256;-90
2022/07/15 14:37:47;;;;;;;;;;;;;;;;;;4971536;28;7175;-89
2022/07/15 14:40:13;;;;;;;;;;;;;;;;;;4971525;28;7165;-91
2022/07/15 14:42:39;;;;;;;;;;;;;;;;;;4972117;28;7026;-91
2022/07/15 14:45:05;;;;;;;;;;;;;;;;;;4971413;28;7104;-88
2022/07/15 14:47:31;;;;;;;;;;;;;;;;;;4971405;28;7205;-89
2022/07/15 14:49:56;;;;;;;;;;;;;;;;;;4971154;28;7187;-80
2022/07/15 14:52:22;;;;;;;;;;;;;;;;;;4971632;28;8682;-88
2022/07/15 14:54:48;;;;;;;;;;;;;;;;;;4971122;28;7086;-79
2022/07/15 14:57:14;;;;;;;;;;;;;;;;;;4970674;28;7086;-79
2022/07/15 14:59:40;;;;;;;;;;;;;;;;;;4971021;28;7273;-79
2022/07/15 15:02:06;;;;;;;;;;;;;;;;;;4971305;28;8664;-79
2022/07/15 15:04:32;;;;;;;;;;;;;;;;;;4970880;28;8401;-80
2022/07/15 15:06:57;;;;;;;;;;;;;;;;;;4970142;28;8444;-80
2022/07/15 15:09:22;;;;;;;;;;;;;;;;;;4970834;28;7046;-79
2022/07/15 15:11:48;;;;;;;;;;;;;;;;;;4970784;28;8500;-87
2022/07/15 15:14:16;;;;;;;;;;;;;;;;;;4972417;28;8423;-86
2022/07/15 15:16:42;;;;;;;;;;;;;;;;;;4973906;28;8725;-88
2022/07/15 15:19:07;;;;;;;;;;;;;;;;;;4971086;28;8449;-87
2022/07/15 15:21:33;;;;;;;;;;;;;;;;;;4971628;28;7056;-83
2022/07/15 15:23:59;;;;;;;;;;;;;;;;;;4971745;28;7027;-87
2022/07/15 15:26:25;;;;;;;;;;;;;;;;;;4973458;28;7100;-83
2022/07/15 15:28:57;;;;;;;;;;;;;;;;;;4970777;28;7213;-83
2022/07/15 15:31:25;;;;;;;;;;;;;;;;;;4970476;28;8763;-83
2022/07/15 15:33:51;;;;;;;;;;;;;;;;;;4971767;28;8331;-86
2022/07/15 15:36:17;;;;;;;;;;;;;;;;;;4969356;28;8842;-82
2022/07/15 15:38:42;;;;;;;;;;;;;;;;;;4969719;28;8702;-83
2022/07/15 15:41:08;;;;;;;;;;;;;;;;;;4970282;28;7183;-83
2022/07/15 15:43:34;;;;;;;;;;;;;;;;;;4970701;28;7043;-84
2022/07/15 15:46:00;;;;;;;;;;;;;;;;;;4970570;28;8486;-83
2022/07/15 15:48:25;;;;;;;;;;;;;;;;;;4969773;28;7185;-88
2022/07/15 16:01:29;;;;;;;;;;;;;;;;;;5071148;28;6614;-53
2022/07/15 16:04:10;;;;;;;;;;;;;;;;;;5049460;28;6988;-54
2022/07/15 16:06:36;;;;;;;;;;;;;;;;;;5060187;28;7155;-57
2022/07/15 16:09:03;;;;;;;;;;;;;;;;;;5070116;28;6985;-57
2022/07/15 16:11:29;;;;;;;;;;;;;;;;;;5062715;28;7002;-56
2022/07/15 16:13:55;;;;;;;;;;;;;;;;;;5066748;28;8089;-57
2022/07/15 16:16:21;;;;;;;;;;;;;;;;;;5052652;28;7412;-57
2022/07/15 16:18:46;;;;;;;;;;;;;;;;;;5048389;28;7207;-57
2022/07/15 16:21:12;;;;;;;;;;;;;;;;;;5051290;28;6972;-57
2022/07/15 16:23:37;;;;;;;;;;;;;;;;;;5050196;28;7113;-57
2022/07/15 16:26:03;;;;;;;;;;;;;;;;;;5051322;28;7224;-57
2022/07/15 16:28:41;;;;;;;;;;;;;;;;;;5051850;28;7148;-58
2022/07/15 16:31:06;;;;;;;;;;;;;;;;;;5051143;28;7513;-57
2022/07/15 16:33:41;;;;;;;;;;;;;;;;;;5050860;28;6977;-57
2022/07/15 16:36:06;;;;;;;;;;;;;;;;;;5050861;28;7146;-57
2022/07/15 16:38:33;;;;;;;;;;;;;;;;;;5050960;28;7229;-57
2022/07/15 16:40:58;;;;;;;;;;;;;;;;;;5051020;28;7180;-57
2022/07/15 16:47:02;;;;;;;;;;;;;;;;;;5050689;28;6727;-57
2022/07/15 16:49:28;;;;;;;;;;;;;;;;;;5050807;28;7367;-57
2022/07/15 16:55:22;;;;;;;;;;;;;;;;;;5050482;28;6693;-57
2022/07/15 16:57:47;;;;;;;;;;;;;;;;;;5050471;28;7131;-58
2022/07/15 17:00:14;;;;;;;;;;;;;;;;;;5049933;28;7157;-58
2022/07/15 17:02:39;;;;;;;;;;;;;;;;;;5037031;28;7280;-57
2022/07/15 17:05:06;;;;;;;;;;;;;;;;;;5037103;28;7194;-58
2022/07/15 17:07:32;;;;;;;;;;;;;;;;;;5019561;28;7141;-57
2022/07/15 17:10:27;;;;;;;;;;;;;;;;;;5016856;28;7384;-57
2022/07/15 17:12:52;;;;;;;;;;;;;;;;;;5017299;28;6834;-57
2022/07/15 17:21:35;;;;;;;;;;;;;;;;;;5016801;28;6713;-58
2022/07/15 17:24:02;;;;;;;;;;;;;;;;;;5017155;28;7212;-57
2022/07/15 17:26:29;;;;;;;;;;;;;;;;;;5017240;28;7223;-57
2022/07/15 17:28:54;;;;;;;;;;;;;;;;;;5016702;28;7127;-58
2022/07/15 17:31:30;;;;;;;;;;;;;;;;;;5017171;28;7229;-58
2022/07/15 17:33:57;;;;;;;;;;;;;;;;;;5016667;28;7424;-58
2022/07/15 17:36:36;;;;;;;;;;;;;;;;;;5016957;28;7395;-57
2022/07/15 17:39:02;;;;;;;;;;;;;;;;;;5016919;28;7212;-57
2022/07/15 17:44:30;;;;;;;;;;;;;;;;;;5016519;28;6963;-57
2022/07/15 17:46:56;;;;;;;;;;;;;;;;;;5016286;28;7184;-58
2022/07/15 17:58:30;;;;;;;;;;;;;;;;;;5016359;28;6931;-58
2022/07/15 18:00:56;;;;;;;;;;;;;;;;;;5016122;28;7087;-57
2022/07/15 18:03:47;;;;;;;;;;;;;;;;;;5016548;28;7082;-57
2022/07/15 18:06:12;;;;;;;;;;;;;;;;;;5016912;28;7158;-58
2022/07/15 18:09:12;;;;;;;;;;;;;;;;;;5020125;28;7038;-57
2022/07/15 18:11:38;;;;;;;;;;;;;;;;;;5035836;28;7889;-57
2022/07/15 18:17:34;;;;;;;;;;;;;;;;;;5035800;28;7017;-57
2022/07/15 18:20:00;;;;;;;;;;;;;;;;;;5035744;28;7076;-57
2022/07/15 18:22:26;;;;;;;;;;;;;;;;;;5036026;28;7084;-57
2022/07/15 18:24:52;;;;;;;;;;;;;;;;;;5035508;28;6963;-57
2022/07/15 18:27:36;;;;;;;;;;;;;;;;;;5035954;28;7066;-57
2022/07/15 18:30:02;;;;;;;;;;;;;;;;;;5035559;28;7251;-57
2022/07/15 18:33:02;;;;;;;;;;;;;;;;;;5035588;28;7165;-57
2022/07/15 18:35:28;;;;;;;;;;;;;;;;;;5035726;28;7069;-57
2022/07/15 18:37:53;;;;;;;;;;;;;;;;;;5035070;28;6943;-57
2022/07/15 18:40:19;;;;;;;;;;;;;;;;;;5035206;28;6957;-57